sensor_id;sensor_type;location;lat;lon;timestamp;P1;durP1;ratioP1;P2;durP2;ratioP2
58553;SDS011;48119;53.218;6.576;2022-12-18T00:08:31;60.70;;;30.05;;
58553;SDS011;48119;53.218;6.576;2022-12-18T00:27:28;54.63;;;28.98;;
58553;SDS011;48119;53.218;6.576;2022-12-18T00:29:56;51.25;;;29.08;;
58553;SDS011;48119;53.218;6.576;2022-12-18T00:32:28;51.75;;;27.15;;
58553;SDS011;48119;53.218;6.576;2022-12-18T00:35:04;53.45;;;28.30;;
58553;SDS011;48119;53.218;6.576;2022-12-18T00:37:31;53.83;;;29.00;;
58553;SDS011;48119;53.218;6.576;2022-12-18T00:40:01;58.97;;;30.02;;
58553;SDS011;48119;53.218;6.576;2022-12-18T00:42:36;56.00;;;28.80;;
58553;SDS011;48119;53.218;6.576;2022-12-18T00:49:10;52.25;;;26.50;;
58553;SDS011;48119;53.218;6.576;2022-12-18T00:51:45;51.17;;;27.02;;
58553;SDS011;48119;53.218;6.576;2022-12-18T00:54:21;50.22;;;26.67;;
58553;SDS011;48119;53.218;6.576;2022-12-18T00:56:52;52.67;;;26.50;;
58553;SDS011;48119;53.218;6.576;2022-12-18T01:06:08;52.05;;;26.27;;
58553;SDS011;48119;53.218;6.576;2022-12-18T01:09:24;52.97;;;24.40;;
58553;SDS011;48119;53.218;6.576;2022-12-18T01:11:53;51.58;;;27.27;;
58553;SDS011;48119;53.218;6.576;2022-12-18T01:14:24;47.65;;;26.33;;
58553;SDS011;48119;53.218;6.576;2022-12-18T01:16:55;48.03;;;26.33;;
58553;SDS011;48119;53.218;6.576;2022-12-18T01:19:55;47.83;;;26.13;;
58553;SDS011;48119;53.218;6.576;2022-12-18T01:26:13;51.85;;;27.50;;
58553;SDS011;48119;53.218;6.576;2022-12-18T01:51:02;49.60;;;25.92;;
58553;SDS011;48119;53.218;6.576;2022-12-18T01:53:31;50.85;;;26.75;;
58553;SDS011;48119;53.218;6.576;2022-12-18T01:55:57;51.67;;;27.58;;
58553;SDS011;48119;53.218;6.576;2022-12-18T01:58:27;46.63;;;26.30;;
58553;SDS011;48119;53.218;6.576;2022-12-18T02:01:03;52.95;;;26.90;;
58553;SDS011;48119;53.218;6.576;2022-12-18T02:03:32;45.92;;;25.08;;
58553;SDS011;48119;53.218;6.576;2022-12-18T02:06:15;50.35;;;25.58;;
58553;SDS011;48119;53.218;6.576;2022-12-18T02:08:48;50.05;;;27.42;;
58553;SDS011;48119;53.218;6.576;2022-12-18T02:14:49;50.70;;;24.30;;
58553;SDS011;48119;53.218;6.576;2022-12-18T02:18:16;48.67;;;25.83;;
58553;SDS011;48119;53.218;6.576;2022-12-18T02:32:26;55.40;;;28.70;;
58553;SDS011;48119;53.218;6.576;2022-12-18T02:34:57;51.38;;;29.05;;
58553;SDS011;48119;53.218;6.576;2022-12-18T02:37:28;59.08;;;28.38;;
58553;SDS011;48119;53.218;6.576;2022-12-18T02:42:51;57.47;;;27.73;;
58553;SDS011;48119;53.218;6.576;2022-12-18T02:45:54;51.72;;;27.50;;
58553;SDS011;48119;53.218;6.576;2022-12-18T02:48:34;55.97;;;28.40;;
58553;SDS011;48119;53.218;6.576;2022-12-18T02:51:11;55.15;;;29.00;;
58553;SDS011;48119;53.218;6.576;2022-12-18T02:53:53;57.15;;;28.42;;
58553;SDS011;48119;53.218;6.576;2022-12-18T02:56:39;53.88;;;25.92;;
58553;SDS011;48119;53.218;6.576;2022-12-18T02:59:29;54.00;;;27.73;;
58553;SDS011;48119;53.218;6.576;2022-12-18T03:10:27;56.33;;;28.00;;
58553;SDS011;48119;53.218;6.576;2022-12-18T03:13:12;54.88;;;27.40;;
58553;SDS011;48119;53.218;6.576;2022-12-18T03:15:50;55.58;;;27.92;;
58553;SDS011;48119;53.218;6.576;2022-12-18T03:21:36;57.10;;;29.23;;
58553;SDS011;48119;53.218;6.576;2022-12-18T03:24:06;64.97;;;29.63;;
58553;SDS011;48119;53.218;6.576;2022-12-18T03:26:36;50.95;;;28.02;;
58553;SDS011;48119;53.218;6.576;2022-12-18T03:29:08;62.17;;;30.38;;
58553;SDS011;48119;53.218;6.576;2022-12-18T03:31:42;39.25;;;21.35;;
58553;SDS011;48119;53.218;6.576;2022-12-18T03:34:17;58.35;;;29.42;;
58553;SDS011;48119;53.218;6.576;2022-12-18T03:36:48;54.47;;;28.77;;
58553;SDS011;48119;53.218;6.576;2022-12-18T03:39:22;53.17;;;28.38;;
58553;SDS011;48119;53.218;6.576;2022-12-18T03:41:52;55.63;;;29.23;;
58553;SDS011;48119;53.218;6.576;2022-12-18T03:44:40;58.95;;;28.90;;
58553;SDS011;48119;53.218;6.576;2022-12-18T03:47:11;54.30;;;28.48;;
58553;SDS011;48119;53.218;6.576;2022-12-18T03:52:41;54.40;;;27.80;;
58553;SDS011;48119;53.218;6.576;2022-12-18T03:55:29;53.35;;;28.80;;
58553;SDS011;48119;53.218;6.576;2022-12-18T03:58:03;51.08;;;27.17;;
58553;SDS011;48119;53.218;6.576;2022-12-18T04:00:31;53.00;;;29.13;;
58553;SDS011;48119;53.218;6.576;2022-12-18T04:03:08;51.42;;;28.02;;
58553;SDS011;48119;53.218;6.576;2022-12-18T04:05:38;50.38;;;27.67;;
58553;SDS011;48119;53.218;6.576;2022-12-18T04:08:06;52.47;;;28.02;;
58553;SDS011;48119;53.218;6.576;2022-12-18T04:10:35;51.53;;;27.98;;
58553;SDS011;48119;53.218;6.576;2022-12-18T04:13:01;57.63;;;28.02;;
58553;SDS011;48119;53.218;6.576;2022-12-18T04:15:30;55.70;;;27.77;;
58553;SDS011;48119;53.218;6.576;2022-12-18T04:18:10;55.13;;;29.45;;
58553;SDS011;48119;53.218;6.576;2022-12-18T04:20:38;48.75;;;25.65;;
58553;SDS011;48119;53.218;6.576;2022-12-18T04:23:04;55.15;;;28.05;;
58553;SDS011;48119;53.218;6.576;2022-12-18T04:25:31;55.88;;;29.52;;
58553;SDS011;48119;53.218;6.576;2022-12-18T04:27:59;56.05;;;28.13;;
58553;SDS011;48119;53.218;6.576;2022-12-18T04:30:28;51.42;;;26.98;;
58553;SDS011;48119;53.218;6.576;2022-12-18T04:32:55;49.08;;;27.63;;
58553;SDS011;48119;53.218;6.576;2022-12-18T04:35:26;56.22;;;27.42;;
58553;SDS011;48119;53.218;6.576;2022-12-18T04:37:54;50.80;;;27.75;;
58553;SDS011;48119;53.218;6.576;2022-12-18T04:40:25;58.53;;;30.35;;
58553;SDS011;48119;53.218;6.576;2022-12-18T04:43:07;57.10;;;27.65;;
58553;SDS011;48119;53.218;6.576;2022-12-18T04:45:49;50.88;;;25.88;;
58553;SDS011;48119;53.218;6.576;2022-12-18T04:48:20;52.05;;;27.50;;
58553;SDS011;48119;53.218;6.576;2022-12-18T04:50:50;52.65;;;28.45;;
58553;SDS011;48119;53.218;6.576;2022-12-18T04:53:16;60.95;;;29.00;;
58553;SDS011;48119;53.218;6.576;2022-12-18T04:55:48;57.83;;;27.73;;
58553;SDS011;48119;53.218;6.576;2022-12-18T04:58:26;55.25;;;27.60;;
58553;SDS011;48119;53.218;6.576;2022-12-18T05:00:52;50.78;;;25.70;;
58553;SDS011;48119;53.218;6.576;2022-12-18T05:03:18;56.08;;;27.50;;
58553;SDS011;48119;53.218;6.576;2022-12-18T05:05:44;57.13;;;28.50;;
58553;SDS011;48119;53.218;6.576;2022-12-18T05:08:10;54.40;;;26.20;;
58553;SDS011;48119;53.218;6.576;2022-12-18T05:10:36;52.90;;;26.80;;
58553;SDS011;48119;53.218;6.576;2022-12-18T05:13:02;49.15;;;25.85;;
58553;SDS011;48119;53.218;6.576;2022-12-18T05:15:32;51.72;;;25.10;;
58553;SDS011;48119;53.218;6.576;2022-12-18T05:18:09;52.90;;;24.95;;
58553;SDS011;48119;53.218;6.576;2022-12-18T05:20:48;58.55;;;27.08;;
58553;SDS011;48119;53.218;6.576;2022-12-18T05:23:33;44.45;;;23.65;;
58553;SDS011;48119;53.218;6.576;2022-12-18T05:26:01;51.53;;;26.40;;
58553;SDS011;48119;53.218;6.576;2022-12-18T05:28:40;52.25;;;27.25;;
58553;SDS011;48119;53.218;6.576;2022-12-18T05:31:27;45.38;;;24.05;;
58553;SDS011;48119;53.218;6.576;2022-12-18T05:33:55;49.57;;;23.03;;
58553;SDS011;48119;53.218;6.576;2022-12-18T05:36:37;46.38;;;23.85;;
58553;SDS011;48119;53.218;6.576;2022-12-18T05:39:03;44.47;;;23.50;;
58553;SDS011;48119;53.218;6.576;2022-12-18T05:41:32;41.83;;;23.25;;
58553;SDS011;48119;53.218;6.576;2022-12-18T05:44:01;48.78;;;23.27;;
58553;SDS011;48119;53.218;6.576;2022-12-18T05:46:38;53.45;;;26.48;;
58553;SDS011;48119;53.218;6.576;2022-12-18T05:49:13;46.75;;;22.67;;
58553;SDS011;48119;53.218;6.576;2022-12-18T05:51:45;48.85;;;23.88;;
58553;SDS011;48119;53.218;6.576;2022-12-18T05:54:26;43.92;;;22.13;;
58553;SDS011;48119;53.218;6.576;2022-12-18T05:56:57;46.00;;;23.27;;
58553;SDS011;48119;53.218;6.576;2022-12-18T05:59:33;46.33;;;23.10;;
58553;SDS011;48119;53.218;6.576;2022-12-18T06:02:07;54.28;;;23.67;;
58553;SDS011;48119;53.218;6.576;2022-12-18T06:04:33;44.78;;;24.13;;
58553;SDS011;48119;53.218;6.576;2022-12-18T06:06:59;46.53;;;23.00;;
58553;SDS011;48119;53.218;6.576;2022-12-18T06:09:25;44.78;;;23.52;;
58553;SDS011;48119;53.218;6.576;2022-12-18T06:11:51;53.38;;;23.58;;
58553;SDS011;48119;53.218;6.576;2022-12-18T06:14:22;51.17;;;23.10;;
58553;SDS011;48119;53.218;6.576;2022-12-18T06:16:53;50.53;;;24.58;;
58553;SDS011;48119;53.218;6.576;2022-12-18T06:19:24;43.17;;;21.38;;
58553;SDS011;48119;53.218;6.576;2022-12-18T06:21:53;42.55;;;22.35;;
58553;SDS011;48119;53.218;6.576;2022-12-18T06:24:28;41.20;;;20.80;;
58553;SDS011;48119;53.218;6.576;2022-12-18T06:27:00;38.58;;;20.88;;
58553;SDS011;48119;53.218;6.576;2022-12-18T06:29:35;45.22;;;22.13;;
58553;SDS011;48119;53.218;6.576;2022-12-18T06:32:10;45.97;;;21.77;;
58553;SDS011;48119;53.218;6.576;2022-12-18T06:34:39;43.10;;;21.05;;
58553;SDS011;48119;53.218;6.576;2022-12-18T06:37:07;40.80;;;20.42;;
58553;SDS011;48119;53.218;6.576;2022-12-18T06:39:33;35.72;;;19.70;;
58553;SDS011;48119;53.218;6.576;2022-12-18T06:42:03;42.35;;;21.27;;
58553;SDS011;48119;53.218;6.576;2022-12-18T06:44:33;43.92;;;20.67;;
58553;SDS011;48119;53.218;6.576;2022-12-18T06:47:02;40.97;;;20.23;;
58553;SDS011;48119;53.218;6.576;2022-12-18T06:49:36;34.70;;;20.30;;
58553;SDS011;48119;53.218;6.576;2022-12-18T06:52:07;35.42;;;18.35;;
58553;SDS011;48119;53.218;6.576;2022-12-18T06:54:40;36.38;;;20.40;;
58553;SDS011;48119;53.218;6.576;2022-12-18T06:57:14;36.83;;;18.05;;
58553;SDS011;48119;53.218;6.576;2022-12-18T06:59:46;34.47;;;19.33;;
58553;SDS011;48119;53.218;6.576;2022-12-18T07:02:12;37.08;;;19.30;;
58553;SDS011;48119;53.218;6.576;2022-12-18T07:04:38;33.70;;;19.75;;
58553;SDS011;48119;53.218;6.576;2022-12-18T07:07:10;33.17;;;18.83;;
58553;SDS011;48119;53.218;6.576;2022-12-18T07:09:37;32.05;;;17.67;;
58553;SDS011;48119;53.218;6.576;2022-12-18T07:12:05;31.83;;;18.30;;
58553;SDS011;48119;53.218;6.576;2022-12-18T07:19:40;30.88;;;17.05;;
58553;SDS011;48119;53.218;6.576;2022-12-18T07:22:13;26.50;;;14.65;;
58553;SDS011;48119;53.218;6.576;2022-12-18T07:24:53;30.98;;;16.63;;
58553;SDS011;48119;53.218;6.576;2022-12-18T07:27:22;32.33;;;17.42;;
58553;SDS011;48119;53.218;6.576;2022-12-18T07:30:00;26.30;;;15.93;;
58553;SDS011;48119;53.218;6.576;2022-12-18T07:32:42;27.60;;;17.15;;
58553;SDS011;48119;53.218;6.576;2022-12-18T07:35:12;26.85;;;15.32;;
58553;SDS011;48119;53.218;6.576;2022-12-18T07:37:48;27.02;;;16.67;;
58553;SDS011;48119;53.218;6.576;2022-12-18T07:40:21;24.55;;;14.57;;
58553;SDS011;48119;53.218;6.576;2022-12-18T07:42:59;28.45;;;16.45;;
58553;SDS011;48119;53.218;6.576;2022-12-18T07:45:35;27.10;;;15.00;;
58553;SDS011;48119;53.218;6.576;2022-12-18T07:48:19;22.90;;;14.90;;
58553;SDS011;48119;53.218;6.576;2022-12-18T07:50:50;26.75;;;15.73;;
58553;SDS011;48119;53.218;6.576;2022-12-18T07:53:27;30.92;;;15.65;;
58553;SDS011;48119;53.218;6.576;2022-12-18T07:55:59;29.77;;;15.73;;
58553;SDS011;48119;53.218;6.576;2022-12-18T07:58:29;22.55;;;13.75;;
58553;SDS011;48119;53.218;6.576;2022-12-18T08:01:04;24.80;;;13.10;;
58553;SDS011;48119;53.218;6.576;2022-12-18T08:03:34;22.15;;;13.68;;
58553;SDS011;48119;53.218;6.576;2022-12-18T08:06:04;23.25;;;13.95;;
58553;SDS011;48119;53.218;6.576;2022-12-18T08:08:39;26.00;;;14.52;;
58553;SDS011;48119;53.218;6.576;2022-12-18T08:11:21;28.77;;;15.20;;
58553;SDS011;48119;53.218;6.576;2022-12-18T08:14:01;25.23;;;14.73;;
58553;SDS011;48119;53.218;6.576;2022-12-18T08:16:31;25.08;;;15.55;;
58553;SDS011;48119;53.218;6.576;2022-12-18T08:18:57;24.05;;;15.07;;
58553;SDS011;48119;53.218;6.576;2022-12-18T08:21:26;27.13;;;14.85;;
58553;SDS011;48119;53.218;6.576;2022-12-18T08:24:08;25.83;;;14.85;;
58553;SDS011;48119;53.218;6.576;2022-12-18T08:26:48;24.33;;;14.75;;
58553;SDS011;48119;53.218;6.576;2022-12-18T08:29:14;28.30;;;15.10;;
58553;SDS011;48119;53.218;6.576;2022-12-18T08:32:05;26.30;;;14.20;;
58553;SDS011;48119;53.218;6.576;2022-12-18T08:34:43;23.20;;;13.90;;
58553;SDS011;48119;53.218;6.576;2022-12-18T08:37:11;29.75;;;16.02;;
58553;SDS011;48119;53.218;6.576;2022-12-18T08:39:50;25.50;;;16.10;;
58553;SDS011;48119;53.218;6.576;2022-12-18T08:42:19;28.30;;;15.90;;
58553;SDS011;48119;53.218;6.576;2022-12-18T08:45:24;27.15;;;15.68;;
58553;SDS011;48119;53.218;6.576;2022-12-18T08:48:00;28.30;;;16.15;;
58553;SDS011;48119;53.218;6.576;2022-12-18T08:50:34;27.50;;;16.67;;
58553;SDS011;48119;53.218;6.576;2022-12-18T08:53:16;23.67;;;14.85;;
58553;SDS011;48119;53.218;6.576;2022-12-18T08:55:52;26.73;;;14.95;;
58553;SDS011;48119;53.218;6.576;2022-12-18T08:58:23;25.95;;;16.35;;
58553;SDS011;48119;53.218;6.576;2022-12-18T09:00:52;26.10;;;16.27;;
58553;SDS011;48119;53.218;6.576;2022-12-18T09:03:20;25.08;;;15.52;;
58553;SDS011;48119;53.218;6.576;2022-12-18T09:06:02;28.85;;;16.40;;
58553;SDS011;48119;53.218;6.576;2022-12-18T09:08:39;26.15;;;16.75;;
58553;SDS011;48119;53.218;6.576;2022-12-18T09:11:22;22.92;;;15.05;;
58553;SDS011;48119;53.218;6.576;2022-12-18T09:14:02;28.17;;;16.00;;
58553;SDS011;48119;53.218;6.576;2022-12-18T09:16:28;24.10;;;15.02;;
58553;SDS011;48119;53.218;6.576;2022-12-18T09:19:03;25.52;;;15.85;;
58553;SDS011;48119;53.218;6.576;2022-12-18T09:21:33;25.63;;;15.32;;
58553;SDS011;48119;53.218;6.576;2022-12-18T09:23:59;25.27;;;14.88;;
58553;SDS011;48119;53.218;6.576;2022-12-18T09:26:28;26.30;;;15.80;;
58553;SDS011;48119;53.218;6.576;2022-12-18T09:29:07;24.20;;;15.18;;
58553;SDS011;48119;53.218;6.576;2022-12-18T09:31:47;24.80;;;15.65;;
58553;SDS011;48119;53.218;6.576;2022-12-18T09:34:30;24.83;;;14.32;;
58553;SDS011;48119;53.218;6.576;2022-12-18T09:37:01;23.55;;;14.82;;
58553;SDS011;48119;53.218;6.576;2022-12-18T09:39:33;23.25;;;14.27;;
58553;SDS011;48119;53.218;6.576;2022-12-18T09:42:00;22.92;;;14.45;;
58553;SDS011;48119;53.218;6.576;2022-12-18T09:44:54;22.48;;;14.55;;
58553;SDS011;48119;53.218;6.576;2022-12-18T09:47:34;22.17;;;12.82;;
58553;SDS011;48119;53.218;6.576;2022-12-18T09:53:02;22.08;;;13.70;;
58553;SDS011;48119;53.218;6.576;2022-12-18T09:55:40;24.25;;;14.57;;
58553;SDS011;48119;53.218;6.576;2022-12-18T09:58:31;23.10;;;13.35;;
58553;SDS011;48119;53.218;6.576;2022-12-18T10:01:24;21.70;;;12.48;;
58553;SDS011;48119;53.218;6.576;2022-12-18T10:04:07;17.65;;;11.52;;
58553;SDS011;48119;53.218;6.576;2022-12-18T10:15:34;18.98;;;11.38;;
58553;SDS011;48119;53.218;6.576;2022-12-18T10:21:23;21.90;;;12.23;;
58553;SDS011;48119;53.218;6.576;2022-12-18T10:27:11;19.52;;;11.25;;
58553;SDS011;48119;53.218;6.576;2022-12-18T10:30:22;17.30;;;10.80;;
58553;SDS011;48119;53.218;6.576;2022-12-18T10:33:05;20.55;;;11.50;;
58553;SDS011;48119;53.218;6.576;2022-12-18T10:36:06;13.45;;;9.75;;
58553;SDS011;48119;53.218;6.576;2022-12-18T10:38:55;19.15;;;11.27;;
58553;SDS011;48119;53.218;6.576;2022-12-18T10:42:11;14.98;;;9.65;;
58553;SDS011;48119;53.218;6.576;2022-12-18T10:44:48;13.43;;;9.43;;
58553;SDS011;48119;53.218;6.576;2022-12-18T10:47:48;14.50;;;9.10;;
58553;SDS011;48119;53.218;6.576;2022-12-18T10:50:37;13.50;;;8.40;;
58553;SDS011;48119;53.218;6.576;2022-12-18T10:53:19;15.65;;;9.48;;
58553;SDS011;48119;53.218;6.576;2022-12-18T10:56:02;15.02;;;8.38;;
58553;SDS011;48119;53.218;6.576;2022-12-18T10:58:54;13.25;;;8.35;;
58553;SDS011;48119;53.218;6.576;2022-12-18T11:01:33;13.45;;;8.30;;
58553;SDS011;48119;53.218;6.576;2022-12-18T11:04:16;10.25;;;6.93;;
58553;SDS011;48119;53.218;6.576;2022-12-18T11:07:05;12.75;;;7.85;;
58553;SDS011;48119;53.218;6.576;2022-12-18T11:12:02;12.05;;;7.63;;
58553;SDS011;48119;53.218;6.576;2022-12-18T11:14:50;10.73;;;6.80;;
58553;SDS011;48119;53.218;6.576;2022-12-18T11:17:28;11.10;;;6.80;;
58553;SDS011;48119;53.218;6.576;2022-12-18T11:20:19;9.43;;;6.72;;
58553;SDS011;48119;53.218;6.576;2022-12-18T11:22:55;11.07;;;6.50;;
58553;SDS011;48119;53.218;6.576;2022-12-18T11:25:33;10.60;;;6.88;;
58553;SDS011;48119;53.218;6.576;2022-12-18T11:30:49;13.25;;;6.80;;
58553;SDS011;48119;53.218;6.576;2022-12-18T11:33:50;10.48;;;6.18;;
58553;SDS011;48119;53.218;6.576;2022-12-18T11:39:21;11.50;;;5.72;;
58553;SDS011;48119;53.218;6.576;2022-12-18T11:42:12;12.23;;;6.60;;
58553;SDS011;48119;53.218;6.576;2022-12-18T11:45:21;8.48;;;5.10;;
58553;SDS011;48119;53.218;6.576;2022-12-18T11:48:04;11.02;;;5.88;;
58553;SDS011;48119;53.218;6.576;2022-12-18T11:51:11;10.20;;;6.40;;
58553;SDS011;48119;53.218;6.576;2022-12-18T12:14:50;15.25;;;6.40;;
58553;SDS011;48119;53.218;6.576;2022-12-18T12:24:38;8.38;;;5.28;;
58553;SDS011;48119;53.218;6.576;2022-12-18T12:28:06;10.20;;;5.63;;
58553;SDS011;48119;53.218;6.576;2022-12-18T12:31:26;10.73;;;5.32;;
58553;SDS011;48119;53.218;6.576;2022-12-18T12:38:50;9.38;;;5.25;;
58553;SDS011;48119;53.218;6.576;2022-12-18T12:48:55;9.68;;;4.97;;
58553;SDS011;48119;53.218;6.576;2022-12-18T12:51:26;7.75;;;4.75;;
58553;SDS011;48119;53.218;6.576;2022-12-18T12:54:03;14.60;;;5.20;;
58553;SDS011;48119;53.218;6.576;2022-12-18T12:56:41;9.60;;;4.88;;
58553;SDS011;48119;53.218;6.576;2022-12-18T12:59:52;8.60;;;5.22;;
58553;SDS011;48119;53.218;6.576;2022-12-18T13:05:40;8.18;;;5.70;;
58553;SDS011;48119;53.218;6.576;2022-12-18T13:08:26;8.00;;;4.88;;
58553;SDS011;48119;53.218;6.576;2022-12-18T13:11:12;8.20;;;5.43;;
58553;SDS011;48119;53.218;6.576;2022-12-18T13:20:05;11.52;;;6.28;;
58553;SDS011;48119;53.218;6.576;2022-12-18T13:26:37;8.45;;;4.70;;
58553;SDS011;48119;53.218;6.576;2022-12-18T13:29:45;9.82;;;4.97;;
58553;SDS011;48119;53.218;6.576;2022-12-18T13:32:21;8.45;;;4.82;;
58553;SDS011;48119;53.218;6.576;2022-12-18T13:37:55;7.50;;;4.63;;
58553;SDS011;48119;53.218;6.576;2022-12-18T13:46:44;8.40;;;5.15;;
58553;SDS011;48119;53.218;6.576;2022-12-18T13:56:47;11.85;;;6.53;;
58553;SDS011;48119;53.218;6.576;2022-12-18T14:03:39;7.32;;;5.10;;
58553;SDS011;48119;53.218;6.576;2022-12-18T14:06:11;8.93;;;5.53;;
58553;SDS011;48119;53.218;6.576;2022-12-18T14:09:24;8.68;;;5.32;;
58553;SDS011;48119;53.218;6.576;2022-12-18T14:15:49;7.68;;;5.07;;
58553;SDS011;48119;53.218;6.576;2022-12-18T14:24:25;9.38;;;4.90;;
58553;SDS011;48119;53.218;6.576;2022-12-18T14:27:24;7.88;;;5.53;;
58553;SDS011;48119;53.218;6.576;2022-12-18T14:30:27;7.93;;;4.88;;
58553;SDS011;48119;53.218;6.576;2022-12-18T14:33:09;7.97;;;4.57;;
58553;SDS011;48119;53.218;6.576;2022-12-18T14:38:51;9.32;;;6.25;;
58553;SDS011;48119;53.218;6.576;2022-12-18T14:41:36;12.00;;;5.78;;
58553;SDS011;48119;53.218;6.576;2022-12-18T14:44:11;10.30;;;6.05;;
58553;SDS011;48119;53.218;6.576;2022-12-18T14:46:48;8.20;;;5.00;;
58553;SDS011;48119;53.218;6.576;2022-12-18T14:49:33;7.32;;;5.43;;
58553;SDS011;48119;53.218;6.576;2022-12-18T14:52:23;8.75;;;5.80;;
58553;SDS011;48119;53.218;6.576;2022-12-18T14:55:14;8.75;;;5.45;;
58553;SDS011;48119;53.218;6.576;2022-12-18T14:57:44;9.02;;;5.15;;
58553;SDS011;48119;53.218;6.576;2022-12-18T15:00:16;8.88;;;6.25;;
58553;SDS011;48119;53.218;6.576;2022-12-18T15:03:06;8.23;;;5.15;;
58553;SDS011;48119;53.218;6.576;2022-12-18T15:08:24;7.50;;;5.43;;
58553;SDS011;48119;53.218;6.576;2022-12-18T15:11:03;10.68;;;7.10;;
58553;SDS011;48119;53.218;6.576;2022-12-18T15:14:46;11.32;;;6.63;;
58553;SDS011;48119;53.218;6.576;2022-12-18T15:16:53;9.52;;;6.22;;
58553;SDS011;48119;53.218;6.576;2022-12-18T15:22:39;10.40;;;6.57;;
58553;SDS011;48119;53.218;6.576;2022-12-18T15:25:22;9.38;;;5.85;;
58553;SDS011;48119;53.218;6.576;2022-12-18T15:27:59;11.68;;;6.18;;
58553;SDS011;48119;53.218;6.576;2022-12-18T15:36:19;11.10;;;6.43;;
58553;SDS011;48119;53.218;6.576;2022-12-18T15:38:49;9.68;;;6.30;;
58553;SDS011;48119;53.218;6.576;2022-12-18T15:41:27;10.73;;;6.25;;
58553;SDS011;48119;53.218;6.576;2022-12-18T15:43:55;9.38;;;6.30;;
58553;SDS011;48119;53.218;6.576;2022-12-18T15:46:49;12.60;;;6.38;;
58553;SDS011;48119;53.218;6.576;2022-12-18T15:49:44;10.20;;;6.57;;
58553;SDS011;48119;53.218;6.576;2022-12-18T15:52:28;9.98;;;7.00;;
58553;SDS011;48119;53.218;6.576;2022-12-18T15:58:04;12.00;;;7.28;;
58553;SDS011;48119;53.218;6.576;2022-12-18T16:00:53;12.50;;;7.47;;
58553;SDS011;48119;53.218;6.576;2022-12-18T16:03:28;14.80;;;8.02;;
58553;SDS011;48119;53.218;6.576;2022-12-18T16:06:02;11.20;;;7.75;;
58553;SDS011;48119;53.218;6.576;2022-12-18T16:08:35;10.20;;;7.50;;
58553;SDS011;48119;53.218;6.576;2022-12-18T16:11:27;11.43;;;7.30;;
58553;SDS011;48119;53.218;6.576;2022-12-18T16:14:27;12.75;;;7.40;;
58553;SDS011;48119;53.218;6.576;2022-12-18T16:17:00;12.73;;;7.25;;
58553;SDS011;48119;53.218;6.576;2022-12-18T16:19:38;10.75;;;6.93;;
58553;SDS011;48119;53.218;6.576;2022-12-18T16:22:18;11.85;;;7.40;;
58553;SDS011;48119;53.218;6.576;2022-12-18T16:24:52;12.85;;;7.45;;
58553;SDS011;48119;53.218;6.576;2022-12-18T16:27:24;12.30;;;7.30;;
58553;SDS011;48119;53.218;6.576;2022-12-18T16:29:55;19.55;;;7.13;;
58553;SDS011;48119;53.218;6.576;2022-12-18T16:32:29;12.23;;;7.63;;
58553;SDS011;48119;53.218;6.576;2022-12-18T16:34:59;13.02;;;8.02;;
58553;SDS011;48119;53.218;6.576;2022-12-18T16:37:33;11.93;;;7.57;;
58553;SDS011;48119;53.218;6.576;2022-12-18T16:40:01;11.18;;;7.45;;
58553;SDS011;48119;53.218;6.576;2022-12-18T16:42:29;10.48;;;7.40;;
58553;SDS011;48119;53.218;6.576;2022-12-18T16:44:58;13.40;;;7.90;;
58553;SDS011;48119;53.218;6.576;2022-12-18T16:47:28;13.35;;;8.10;;
58553;SDS011;48119;53.218;6.576;2022-12-18T16:50:06;10.88;;;6.80;;
58553;SDS011;48119;53.218;6.576;2022-12-18T16:52:38;16.08;;;8.70;;
58553;SDS011;48119;53.218;6.576;2022-12-18T16:55:14;13.35;;;7.97;;
58553;SDS011;48119;53.218;6.576;2022-12-18T16:57:40;10.90;;;7.22;;
58553;SDS011;48119;53.218;6.576;2022-12-18T17:00:09;12.77;;;7.88;;
58553;SDS011;48119;53.218;6.576;2022-12-18T17:02:45;10.05;;;6.70;;
58553;SDS011;48119;53.218;6.576;2022-12-18T17:05:12;10.70;;;6.85;;
58553;SDS011;48119;53.218;6.576;2022-12-18T17:07:46;11.68;;;7.88;;
58553;SDS011;48119;53.218;6.576;2022-12-18T17:10:15;10.80;;;6.55;;
58553;SDS011;48119;53.218;6.576;2022-12-18T17:16:25;10.02;;;7.18;;
58553;SDS011;48119;53.218;6.576;2022-12-18T17:19:05;11.63;;;7.20;;
58553;SDS011;48119;53.218;6.576;2022-12-18T17:21:35;11.32;;;7.25;;
58553;SDS011;48119;53.218;6.576;2022-12-18T17:24:08;9.85;;;7.03;;
58553;SDS011;48119;53.218;6.576;2022-12-18T17:26:36;11.68;;;7.60;;
58553;SDS011;48119;53.218;6.576;2022-12-18T17:29:11;13.48;;;8.73;;
58553;SDS011;48119;53.218;6.576;2022-12-18T17:31:47;18.83;;;8.10;;
58553;SDS011;48119;53.218;6.576;2022-12-18T17:34:15;10.13;;;6.95;;
58553;SDS011;48119;53.218;6.576;2022-12-18T17:36:51;9.55;;;6.68;;
58553;SDS011;48119;53.218;6.576;2022-12-18T17:39:29;12.63;;;7.22;;
58553;SDS011;48119;53.218;6.576;2022-12-18T17:42:10;13.15;;;7.28;;
58553;SDS011;48119;53.218;6.576;2022-12-18T17:44:47;12.57;;;7.28;;
58553;SDS011;48119;53.218;6.576;2022-12-18T17:47:22;12.20;;;7.05;;
58553;SDS011;48119;53.218;6.576;2022-12-18T17:50:03;13.20;;;7.80;;
58553;SDS011;48119;53.218;6.576;2022-12-18T17:52:58;11.90;;;7.10;;
58553;SDS011;48119;53.218;6.576;2022-12-18T17:55:42;9.20;;;6.00;;
58553;SDS011;48119;53.218;6.576;2022-12-18T17:58:20;13.10;;;6.82;;
58553;SDS011;48119;53.218;6.576;2022-12-18T18:01:20;10.93;;;6.57;;
58553;SDS011;48119;53.218;6.576;2022-12-18T18:03:48;11.35;;;6.45;;
58553;SDS011;48119;53.218;6.576;2022-12-18T18:06:27;9.68;;;6.38;;
58553;SDS011;48119;53.218;6.576;2022-12-18T18:09:19;10.43;;;6.43;;
58553;SDS011;48119;53.218;6.576;2022-12-18T18:14:59;11.25;;;7.13;;
58553;SDS011;48119;53.218;6.576;2022-12-18T18:17:27;11.38;;;6.60;;
58553;SDS011;48119;53.218;6.576;2022-12-18T18:19:59;13.25;;;7.22;;
58553;SDS011;48119;53.218;6.576;2022-12-18T18:22:35;10.77;;;6.95;;
58553;SDS011;48119;53.218;6.576;2022-12-18T18:25:07;11.10;;;7.05;;
58553;SDS011;48119;53.218;6.576;2022-12-18T18:28:05;12.15;;;7.78;;
58553;SDS011;48119;53.218;6.576;2022-12-18T18:30:41;11.65;;;7.65;;
58553;SDS011;48119;53.218;6.576;2022-12-18T18:33:12;11.95;;;7.13;;
58553;SDS011;48119;53.218;6.576;2022-12-18T18:35:58;10.37;;;6.27;;
58553;SDS011;48119;53.218;6.576;2022-12-18T18:38:41;11.52;;;7.00;;
58553;SDS011;48119;53.218;6.576;2022-12-18T18:41:17;15.25;;;7.68;;
58553;SDS011;48119;53.218;6.576;2022-12-18T18:43:51;11.57;;;6.60;;
58553;SDS011;48119;53.218;6.576;2022-12-18T18:46:32;11.50;;;7.05;;
58553;SDS011;48119;53.218;6.576;2022-12-18T18:48:58;11.70;;;7.53;;
58553;SDS011;48119;53.218;6.576;2022-12-18T18:51:38;10.40;;;6.82;;
58553;SDS011;48119;53.218;6.576;2022-12-18T18:54:26;11.30;;;6.85;;
58553;SDS011;48119;53.218;6.576;2022-12-18T18:57:57;11.70;;;7.30;;
58553;SDS011;48119;53.218;6.576;2022-12-18T19:03:55;15.20;;;8.85;;
58553;SDS011;48119;53.218;6.576;2022-12-18T19:06:35;11.98;;;7.90;;
58553;SDS011;48119;53.218;6.576;2022-12-18T19:09:27;13.90;;;8.10;;
58553;SDS011;48119;53.218;6.576;2022-12-18T19:12:18;11.85;;;7.45;;
58553;SDS011;48119;53.218;6.576;2022-12-18T19:15:43;13.13;;;8.00;;
58553;SDS011;48119;53.218;6.576;2022-12-18T19:18:21;11.98;;;7.63;;
58553;SDS011;48119;53.218;6.576;2022-12-18T19:21:19;12.13;;;7.43;;
58553;SDS011;48119;53.218;6.576;2022-12-18T19:24:05;11.37;;;7.90;;
58553;SDS011;48119;53.218;6.576;2022-12-18T19:26:34;12.80;;;7.15;;